»·PEaware :: UAL745 KSFO-KSAN

UAL745 :: KSFO-KSAN

FLIGHT INFORMATION

Flight Status: Arrived
Operator:
United Airlines
More flights by this operator :: More flights under this callsign
Pilot: Max W. (2591)
Aircraft: AIRBUS A319
(A319)
More flights by this aircraft type
Origin: KSFO San Francisco Intl
United States
Destination: KSAN San Diego Intl-Lindbergh
United States
More flights between these airports :: More routes between these airports
Route: SSTIK4 YYUNG LAX COMIX2
File this flight plan on PilotEdge
Remarks:
Altitude:
(Current/Filed)
33,000ft
Speed:
(Current/Filed)
450kts
Departed: 21-Oct-19 05:42 PM
Arrived: 21-Oct-19 06:48 PM
Distance/Time
Traveled:
388nm/1:06
Distance/Time
To Go:
Arrived

Flight Plot

Page will automatically refresh every two minutes.

Flight plan parsing failed; only flown route is shown


Map Options




Map Legend


Flown Route
Filed Route
Departure Airport
Arrival Airport
Navaid (VOR, NDB)
Fix

Horizontal Profiles

Position Reports

Time Latitude Longitude Heading Altitude Ground
Speed
21-Oct-19 17:26 37.619729 -122.384025 213 21ft 0kts
21-Oct-19 17:27 37.619729 -122.384025 213 21ft 0kts
21-Oct-19 17:28 37.619729 -122.384025 213 21ft 0kts
21-Oct-19 17:29 37.619729 -122.384025 213 21ft 0kts
21-Oct-19 17:30 37.619729 -122.384025 213 21ft 0kts
21-Oct-19 17:31 37.619729 -122.384025 213 21ft 0kts
21-Oct-19 17:32 37.619730 -122.384024 213 21ft 0kts
21-Oct-19 17:33 37.620206 -122.384080 133 21ft 2kts
21-Oct-19 17:34 37.620256 -122.384161 121 21ft 0kts
21-Oct-19 17:35 37.620219 -122.384080 119 21ft 0kts
21-Oct-19 17:36 37.620197 -122.383621 93 21ft 11kts
21-Oct-19 17:37 37.615455 -122.380394 209 21ft 24kts
21-Oct-19 17:38 37.611166 -122.383250 207 21ft 13kts
21-Oct-19 17:39 37.608520 -122.383986 121 21ft 10kts
21-Oct-19 17:40 37.608492 -122.383929 121 21ft 0kts
21-Oct-19 17:41 37.613005 -122.379578 27 21ft 115kts
21-Oct-19 17:42 37.659509 -122.364156 1 2909ft 197kts
21-Oct-19 17:43 37.711613 -122.390334 286 5556ft 258kts
21-Oct-19 17:44 37.662067 -122.446233 188 9106ft 305kts
21-Oct-19 17:45 37.571800 -122.460486 188 11502ft 361kts
21-Oct-19 17:46 37.469138 -122.478403 189 14589ft 382kts
21-Oct-19 17:47 37.362437 -122.498241 189 17431ft 397kts
21-Oct-19 17:48 37.251881 -122.518797 190 19935ft 410kts
21-Oct-19 17:49 37.137734 -122.540006 190 22182ft 423kts
21-Oct-19 17:50 37.020168 -122.558218 177 24307ft 434kts
21-Oct-19 17:51 36.910796 -122.494540 149 25945ft 451kts
21-Oct-19 17:52 36.800006 -122.412754 150 26344ft 487kts
21-Oct-19 17:53 36.684121 -122.327934 150 28293ft 482kts
21-Oct-19 17:54 36.569135 -122.244128 150 30076ft 477kts
21-Oct-19 17:55 36.455487 -122.161611 151 31663ft 473kts
21-Oct-19 17:56 36.342702 -122.079990 151 33085ft 468kts
21-Oct-19 17:57 36.230095 -121.998798 151 33166ft 467kts
21-Oct-19 17:58 36.117869 -121.918189 151 33167ft 467kts
21-Oct-19 17:59 36.010462 -121.828763 140 33166ft 469kts
21-Oct-19 18:00 35.922388 -121.710267 128 33167ft 471kts
21-Oct-19 18:01 35.843999 -121.585791 128 33163ft 471kts
21-Oct-19 18:02 35.763436 -121.458424 128 33151ft 471kts
21-Oct-19 18:03 35.682674 -121.330923 128 33135ft 472kts
21-Oct-19 18:04 35.601950 -121.203628 129 33139ft 472kts
21-Oct-19 18:05 35.520747 -121.076512 129 33139ft 473kts
21-Oct-19 18:06 35.443936 -120.945119 126 33131ft 474kts
21-Oct-19 18:07 35.367584 -120.813019 126 33112ft 475kts
21-Oct-19 18:08 35.290679 -120.681142 126 33096ft 475kts
21-Oct-19 18:09 35.213855 -120.549963 126 33093ft 475kts
21-Oct-19 18:10 35.136573 -120.418503 126 33092ft 475kts
21-Oct-19 18:11 35.059228 -120.287189 127 33085ft 474kts
21-Oct-19 18:12 34.981981 -120.156503 127 33084ft 475kts
21-Oct-19 18:13 34.904530 -120.026205 127 33087ft 476kts
21-Oct-19 18:14 34.829528 -119.901215 127 33091ft 476kts
21-Oct-19 18:15 34.751256 -119.770690 126 33081ft 476kts
21-Oct-19 18:16 34.673251 -119.640912 126 33062ft 476kts
21-Oct-19 18:17 34.594936 -119.511082 126 33056ft 476kts
21-Oct-19 18:18 34.516397 -119.381348 126 33058ft 476kts
21-Oct-19 18:19 34.437800 -119.251599 127 33061ft 476kts
21-Oct-19 18:20 34.359324 -119.122742 127 33063ft 476kts
21-Oct-19 18:21 34.280272 -118.993548 127 33064ft 476kts
21-Oct-19 18:22 34.201455 -118.865234 127 33064ft 473kts
21-Oct-19 18:23 34.123068 -118.738106 127 33063ft 471kts
21-Oct-19 18:24 34.044328 -118.610893 127 33056ft 471kts
21-Oct-19 18:25 33.965120 -118.483476 127 33048ft 471kts
21-Oct-19 18:26 33.881546 -118.365135 134 33042ft 471kts
21-Oct-19 18:27 33.792822 -118.250706 133 30807ft 476kts
21-Oct-19 18:28 33.702513 -118.132381 132 26878ft 484kts
21-Oct-19 18:29 33.613386 -118.015467 132 24268ft 461kts
21-Oct-19 18:31 33.527732 -117.905719 135 21988ft 441kts
21-Oct-19 18:32 33.440936 -117.806331 135 19789ft 424kts
21-Oct-19 18:33 33.353239 -117.712316 137 17670ft 419kts
21-Oct-19 18:34 33.267776 -117.621394 136 15450ft 407kts
21-Oct-19 18:35 33.183792 -117.532704 137 12905ft 398kts
21-Oct-19 18:36 33.098475 -117.451430 143 10434ft 387kts
21-Oct-19 18:37 33.020072 -117.386130 143 10077ft 295kts
21-Oct-19 18:38 32.954250 -117.330750 143 9643ft 293kts
21-Oct-19 18:39 32.891209 -117.277720 144 8474ft 281kts
21-Oct-19 18:40 32.828099 -117.225663 143 7280ft 270kts
21-Oct-19 18:41 32.797610 -117.149914 102 6201ft 250kts
21-Oct-19 18:42 32.780652 -117.073142 102 5453ft 236kts
21-Oct-19 18:43 32.751241 -117.007718 167 3497ft 229kts
21-Oct-19 18:44 32.715891 -117.043577 257 2499ft 159kts
21-Oct-19 18:45 32.708655 -117.089829 287 1808ft 140kts
21-Oct-19 18:46 32.719588 -117.133810 288 938ft 137kts
21-Oct-19 18:47 32.730542 -117.177360 287 133ft 136kts
21-Oct-19 18:47 32.733494 -117.195939 209 22ft 11kts
21-Oct-19 18:49 32.733237 -117.196050 198 22ft 0kts
21-Oct-19 18:50 32.733237 -117.196050 198 22ft 0kts
21-Oct-19 18:50 32.733237 -117.196050 198 22ft 0kts

Navigation Log

Ident Type
Flight plan parsing failed, navigation log unavailable